sensor_id;sensor_type;location;lat;lon;timestamp;pressure;altitude;pressure_sealevel;temperature;humidity
80397;BME280;69721;55.894;-3.052;2023-08-06T00:00:32;101009.36;;;16.51;49.28
80397;BME280;69721;55.894;-3.052;2023-08-06T00:02:58;101008.48;;;17.67;47.47
80397;BME280;69721;55.894;-3.052;2023-08-06T00:05:23;101006.92;;;17.12;48.17
80397;BME280;69721;55.894;-3.052;2023-08-06T00:10:14;101008.49;;;17.29;47.96
80397;BME280;69721;55.894;-3.052;2023-08-06T00:12:39;101007.45;;;17.21;47.87
80397;BME280;69721;55.894;-3.052;2023-08-06T00:15:06;101010.98;;;17.27;47.54
80397;BME280;69721;55.894;-3.052;2023-08-06T00:17:30;101008.67;;;17.93;46.76
80397;BME280;69721;55.894;-3.052;2023-08-06T00:19:56;101012.35;;;17.80;46.01
80397;BME280;69721;55.894;-3.052;2023-08-06T00:22:21;101015.05;;;17.80;46.62
80397;BME280;69721;55.894;-3.052;2023-08-06T00:24:46;101013.93;;;17.21;47.43
80397;BME280;69721;55.894;-3.052;2023-08-06T00:27:12;101015.34;;;16.67;48.44
80397;BME280;69721;55.894;-3.052;2023-08-06T00:29:37;101019.33;;;17.62;47.18
80397;BME280;69721;55.894;-3.052;2023-08-06T00:32:03;101016.80;;;17.25;47.73
80397;BME280;69721;55.894;-3.052;2023-08-06T00:34:28;101020.67;;;17.13;47.98
80397;BME280;69721;55.894;-3.052;2023-08-06T00:36:54;101020.34;;;17.41;47.62
80397;BME280;69721;55.894;-3.052;2023-08-06T00:39:19;101021.25;;;17.02;48.14
80397;BME280;69721;55.894;-3.052;2023-08-06T00:41:45;101024.31;;;17.48;47.50
80397;BME280;69721;55.894;-3.052;2023-08-06T00:44:10;101029.19;;;17.08;48.00
80397;BME280;69721;55.894;-3.052;2023-08-06T00:46:35;101032.13;;;16.92;48.31
80397;BME280;69721;55.894;-3.052;2023-08-06T00:49:01;101028.32;;;17.14;47.79
80397;BME280;69721;55.894;-3.052;2023-08-06T00:51:26;101030.12;;;17.48;47.31
80397;BME280;69721;55.894;-3.052;2023-08-06T00:53:52;101029.08;;;17.05;48.00
80397;BME280;69721;55.894;-3.052;2023-08-06T00:56:18;101029.15;;;16.99;47.97
80397;BME280;69721;55.894;-3.052;2023-08-06T00:58:43;101026.81;;;16.84;48.67
80397;BME280;69721;55.894;-3.052;2023-08-06T01:01:08;101027.20;;;16.76;48.87
80397;BME280;69721;55.894;-3.052;2023-08-06T01:03:33;101026.41;;;16.43;49.03
80397;BME280;69721;55.894;-3.052;2023-08-06T01:05:59;101028.80;;;16.57;48.73
80397;BME280;69721;55.894;-3.052;2023-08-06T01:08:33;101030.23;;;16.63;48.75
80397;BME280;69721;55.894;-3.052;2023-08-06T01:11:00;101029.30;;;16.86;48.51
80397;BME280;69721;55.894;-3.052;2023-08-06T01:13:23;101028.80;;;16.56;48.62
80397;BME280;69721;55.894;-3.052;2023-08-06T01:15:45;101029.06;;;16.47;48.72
80397;BME280;69721;55.894;-3.052;2023-08-06T01:20:31;101031.36;;;16.83;48.08
80397;BME280;69721;55.894;-3.052;2023-08-06T01:22:57;101032.58;;;16.88;47.93
80397;BME280;69721;55.894;-3.052;2023-08-06T01:25:28;101034.26;;;16.84;47.92
80397;BME280;69721;55.894;-3.052;2023-08-06T01:27:49;101038.05;;;16.79;47.79
80397;BME280;69721;55.894;-3.052;2023-08-06T01:30:16;101041.20;;;16.83;47.48
80397;BME280;69721;55.894;-3.052;2023-08-06T01:32:42;101044.47;;;16.94;47.01
80397;BME280;69721;55.894;-3.052;2023-08-06T01:35:04;101043.99;;;16.86;47.34
80397;BME280;69721;55.894;-3.052;2023-08-06T01:37:30;101044.03;;;17.00;46.89
80397;BME280;69721;55.894;-3.052;2023-08-06T01:39:54;101044.34;;;16.69;47.58
80397;BME280;69721;55.894;-3.052;2023-08-06T01:42:20;101046.66;;;16.79;47.28
80397;BME280;69721;55.894;-3.052;2023-08-06T01:44:45;101053.29;;;17.05;47.12
80397;BME280;69721;55.894;-3.052;2023-08-06T01:47:11;101053.23;;;16.88;47.32
80397;BME280;69721;55.894;-3.052;2023-08-06T01:49:36;101053.09;;;16.63;47.97
80397;BME280;69721;55.894;-3.052;2023-08-06T01:52:02;101055.18;;;16.60;48.00
80397;BME280;69721;55.894;-3.052;2023-08-06T01:54:27;101056.50;;;16.61;47.48
80397;BME280;69721;55.894;-3.052;2023-08-06T01:56:53;101055.02;;;16.63;47.52
80397;BME280;69721;55.894;-3.052;2023-08-06T01:59:18;101055.01;;;16.55;47.06
80397;BME280;69721;55.894;-3.052;2023-08-06T02:01:46;101056.56;;;16.47;47.11
80397;BME280;69721;55.894;-3.052;2023-08-06T02:04:09;101057.00;;;16.66;47.25
80397;BME280;69721;55.894;-3.052;2023-08-06T02:06:35;101058.93;;;16.74;47.44
80397;BME280;69721;55.894;-3.052;2023-08-06T02:09:00;101060.94;;;16.14;47.70
80397;BME280;69721;55.894;-3.052;2023-08-06T02:11:25;101061.31;;;16.11;47.68
80397;BME280;69721;55.894;-3.052;2023-08-06T02:13:51;101061.32;;;16.47;47.94
80397;BME280;69721;55.894;-3.052;2023-08-06T02:16:16;101061.36;;;16.24;48.17
80397;BME280;69721;55.894;-3.052;2023-08-06T02:18:42;101062.47;;;16.40;48.22
80397;BME280;69721;55.894;-3.052;2023-08-06T02:21:07;101061.13;;;16.58;47.98
80397;BME280;69721;55.894;-3.052;2023-08-06T02:23:32;101059.65;;;16.21;48.25
80397;BME280;69721;55.894;-3.052;2023-08-06T02:25:59;101058.83;;;16.79;48.25
80397;BME280;69721;55.894;-3.052;2023-08-06T02:30:50;101057.32;;;16.43;48.52
80397;BME280;69721;55.894;-3.052;2023-08-06T02:33:14;101055.28;;;16.50;48.19
80397;BME280;69721;55.894;-3.052;2023-08-06T02:35:40;101055.82;;;16.30;48.63
80397;BME280;69721;55.894;-3.052;2023-08-06T02:38:05;101055.11;;;16.52;48.37
80397;BME280;69721;55.894;-3.052;2023-08-06T02:40:30;101055.64;;;16.89;47.58
80397;BME280;69721;55.894;-3.052;2023-08-06T02:42:56;101056.32;;;16.89;47.94
80397;BME280;69721;55.894;-3.052;2023-08-06T02:45:21;101056.09;;;16.58;48.15
80397;BME280;69721;55.894;-3.052;2023-08-06T02:47:46;101058.18;;;17.07;47.24
80397;BME280;69721;55.894;-3.052;2023-08-06T02:50:12;101057.89;;;16.69;47.74
80397;BME280;69721;55.894;-3.052;2023-08-06T02:52:37;101056.17;;;16.73;48.05
80397;BME280;69721;55.894;-3.052;2023-08-06T02:55:05;101058.02;;;16.53;48.30
80397;BME280;69721;55.894;-3.052;2023-08-06T02:57:28;101060.90;;;16.45;48.59
80397;BME280;69721;55.894;-3.052;2023-08-06T02:59:54;101060.64;;;16.72;48.11
80397;BME280;69721;55.894;-3.052;2023-08-06T03:02:19;101062.47;;;16.67;48.20
80397;BME280;69721;55.894;-3.052;2023-08-06T03:04:45;101061.38;;;16.82;47.98
80397;BME280;69721;55.894;-3.052;2023-08-06T03:07:10;101061.91;;;16.72;47.97
80397;BME280;69721;55.894;-3.052;2023-08-06T03:09:35;101062.27;;;16.83;48.40
80397;BME280;69721;55.894;-3.052;2023-08-06T03:12:01;101063.83;;;17.07;47.63
80397;BME280;69721;55.894;-3.052;2023-08-06T03:14:26;101060.84;;;17.45;46.59
80397;BME280;69721;55.894;-3.052;2023-08-06T03:16:51;101062.96;;;16.85;47.61
80397;BME280;69721;55.894;-3.052;2023-08-06T03:19:17;101062.23;;;16.61;48.09
80397;BME280;69721;55.894;-3.052;2023-08-06T03:21:42;101062.73;;;16.76;48.15
80397;BME280;69721;55.894;-3.052;2023-08-06T03:24:08;101060.54;;;16.87;47.62
80397;BME280;69721;55.894;-3.052;2023-08-06T03:26:33;101060.28;;;15.63;49.74
80397;BME280;69721;55.894;-3.052;2023-08-06T03:28:58;101060.19;;;16.04;49.33
80397;BME280;69721;55.894;-3.052;2023-08-06T03:31:24;101056.58;;;17.20;47.93
80397;BME280;69721;55.894;-3.052;2023-08-06T03:33:49;101057.43;;;16.35;48.81
80397;BME280;69721;55.894;-3.052;2023-08-06T03:36:15;101058.25;;;16.98;48.03
80397;BME280;69721;55.894;-3.052;2023-08-06T03:41:05;101059.96;;;17.10;47.77
80397;BME280;69721;55.894;-3.052;2023-08-06T03:43:31;101056.69;;;16.79;48.39
80397;BME280;69721;55.894;-3.052;2023-08-06T03:45:56;101061.29;;;17.52;47.02
80397;BME280;69721;55.894;-3.052;2023-08-06T03:48:22;101062.22;;;17.44;46.92
80397;BME280;69721;55.894;-3.052;2023-08-06T03:50:47;101063.34;;;16.73;47.75
80397;BME280;69721;55.894;-3.052;2023-08-06T03:53:12;101062.87;;;16.72;48.15
80397;BME280;69721;55.894;-3.052;2023-08-06T03:55:38;101061.98;;;16.34;48.47
80397;BME280;69721;55.894;-3.052;2023-08-06T03:58:04;101064.16;;;16.47;48.34
80397;BME280;69721;55.894;-3.052;2023-08-06T04:00:29;101065.48;;;17.06;47.82
80397;BME280;69721;55.894;-3.052;2023-08-06T04:02:54;101067.53;;;17.18;47.14
80397;BME280;69721;55.894;-3.052;2023-08-06T04:05:20;101066.70;;;16.74;47.81
80397;BME280;69721;55.894;-3.052;2023-08-06T04:07:45;101068.33;;;16.92;47.42
80397;BME280;69721;55.894;-3.052;2023-08-06T04:10:11;101070.02;;;16.57;48.03
80397;BME280;69721;55.894;-3.052;2023-08-06T04:12:36;101072.59;;;16.50;47.69
80397;BME280;69721;55.894;-3.052;2023-08-06T04:15:03;101075.15;;;17.20;47.03
80397;BME280;69721;55.894;-3.052;2023-08-06T04:17:28;101078.37;;;17.09;47.12
80397;BME280;69721;55.894;-3.052;2023-08-06T04:19:54;101082.70;;;17.10;47.00
80397;BME280;69721;55.894;-3.052;2023-08-06T04:22:19;101084.78;;;17.08;46.93
80397;BME280;69721;55.894;-3.052;2023-08-06T04:24:44;101081.23;;;17.15;47.29
80397;BME280;69721;55.894;-3.052;2023-08-06T04:27:09;101081.15;;;16.91;47.34
80397;BME280;69721;55.894;-3.052;2023-08-06T04:29:35;101082.65;;;16.93;47.20
80397;BME280;69721;55.894;-3.052;2023-08-06T04:32:00;101083.15;;;16.97;47.34
80397;BME280;69721;55.894;-3.052;2023-08-06T04:34:26;101086.75;;;17.41;46.29
80397;BME280;69721;55.894;-3.052;2023-08-06T04:36:51;101086.12;;;17.46;46.19
80397;BME280;69721;55.894;-3.052;2023-08-06T04:39:16;101086.76;;;17.17;46.57
80397;BME280;69721;55.894;-3.052;2023-08-06T04:41:42;101088.72;;;17.37;46.22
80397;BME280;69721;55.894;-3.052;2023-08-06T04:44:07;101091.21;;;17.18;46.67
80397;BME280;69721;55.894;-3.052;2023-08-06T04:46:33;101093.51;;;17.20;46.69
80397;BME280;69721;55.894;-3.052;2023-08-06T04:51:23;101095.64;;;17.30;46.45
80397;BME280;69721;55.894;-3.052;2023-08-06T04:53:49;101094.17;;;16.98;46.62
80397;BME280;69721;55.894;-3.052;2023-08-06T04:56:14;101090.11;;;16.83;47.33
80397;BME280;69721;55.894;-3.052;2023-08-06T04:58:39;101088.60;;;16.99;47.15
80397;BME280;69721;55.894;-3.052;2023-08-06T05:01:05;101090.14;;;17.04;47.13
80397;BME280;69721;55.894;-3.052;2023-08-06T05:03:30;101094.50;;;17.27;46.78
80397;BME280;69721;55.894;-3.052;2023-08-06T05:05:56;101096.42;;;16.86;47.51
80397;BME280;69721;55.894;-3.052;2023-08-06T05:08:21;101100.81;;;16.94;47.46
80397;BME280;69721;55.894;-3.052;2023-08-06T05:10:48;101102.78;;;17.09;47.15
80397;BME280;69721;55.894;-3.052;2023-08-06T05:13:13;101100.59;;;16.70;47.48
80397;BME280;69721;55.894;-3.052;2023-08-06T05:15:39;101097.63;;;16.48;47.93
80397;BME280;69721;55.894;-3.052;2023-08-06T05:18:04;101101.07;;;17.00;47.68
80397;BME280;69721;55.894;-3.052;2023-08-06T05:20:29;101101.59;;;16.93;47.80
80397;BME280;69721;55.894;-3.052;2023-08-06T05:22:55;101100.03;;;16.63;48.30
80397;BME280;69721;55.894;-3.052;2023-08-06T05:25:20;101101.34;;;16.83;48.20
80397;BME280;69721;55.894;-3.052;2023-08-06T05:27:45;101100.75;;;17.17;47.69
80397;BME280;69721;55.894;-3.052;2023-08-06T05:30:11;101101.83;;;17.32;47.89
80397;BME280;69721;55.894;-3.052;2023-08-06T05:32:37;101101.49;;;16.94;47.76
80397;BME280;69721;55.894;-3.052;2023-08-06T05:35:03;101106.78;;;17.28;47.36
80397;BME280;69721;55.894;-3.052;2023-08-06T05:37:27;101107.79;;;17.44;47.64
80397;BME280;69721;55.894;-3.052;2023-08-06T05:39:52;101109.67;;;17.73;46.95
80397;BME280;69721;55.894;-3.052;2023-08-06T05:42:18;101110.36;;;18.05;46.06
80397;BME280;69721;55.894;-3.052;2023-08-06T05:44:43;101113.07;;;17.80;46.32
80397;BME280;69721;55.894;-3.052;2023-08-06T05:47:09;101116.03;;;18.48;44.85
80397;BME280;69721;55.894;-3.052;2023-08-06T05:49:34;101115.05;;;18.00;45.74
80397;BME280;69721;55.894;-3.052;2023-08-06T05:52:00;101120.53;;;18.33;45.51
80397;BME280;69721;55.894;-3.052;2023-08-06T05:54:25;101121.43;;;18.47;45.43
80397;BME280;69721;55.894;-3.052;2023-08-06T05:56:50;101125.51;;;17.57;46.03
80397;BME280;69721;55.894;-3.052;2023-08-06T06:01:42;101126.83;;;17.98;45.48
80397;BME280;69721;55.894;-3.052;2023-08-06T06:04:07;101130.83;;;18.69;45.35
80397;BME280;69721;55.894;-3.052;2023-08-06T06:06:33;101131.66;;;18.16;45.33
80397;BME280;69721;55.894;-3.052;2023-08-06T06:08:59;101135.87;;;18.40;45.28
80397;BME280;69721;55.894;-3.052;2023-08-06T06:11:24;101135.50;;;17.67;45.35
80397;BME280;69721;55.894;-3.052;2023-08-06T06:13:51;101137.58;;;18.73;44.95
80397;BME280;69721;55.894;-3.052;2023-08-06T06:16:15;101134.50;;;17.95;45.59
80397;BME280;69721;55.894;-3.052;2023-08-06T06:18:40;101136.92;;;17.75;45.92
80397;BME280;69721;55.894;-3.052;2023-08-06T06:21:05;101142.66;;;17.23;46.82
80397;BME280;69721;55.894;-3.052;2023-08-06T06:23:32;101145.30;;;17.46;46.72
80397;BME280;69721;55.894;-3.052;2023-08-06T06:25:56;101147.04;;;17.29;47.02
80397;BME280;69721;55.894;-3.052;2023-08-06T06:28:22;101142.87;;;18.00;45.97
80397;BME280;69721;55.894;-3.052;2023-08-06T06:30:48;101141.51;;;18.00;45.91
80397;BME280;69721;55.894;-3.052;2023-08-06T06:33:13;101150.06;;;17.38;46.50
80397;BME280;69721;55.894;-3.052;2023-08-06T06:35:38;101150.28;;;17.40;47.25
80397;BME280;69721;55.894;-3.052;2023-08-06T06:38:04;101149.64;;;17.92;46.46
80397;BME280;69721;55.894;-3.052;2023-08-06T06:40:29;101152.53;;;17.50;47.62
80397;BME280;69721;55.894;-3.052;2023-08-06T06:42:54;101153.61;;;16.90;47.84
80397;BME280;69721;55.894;-3.052;2023-08-06T06:45:19;101160.63;;;14.78;51.48
80397;BME280;69721;55.894;-3.052;2023-08-06T06:47:45;101158.33;;;15.83;51.13
80397;BME280;69721;55.894;-3.052;2023-08-06T06:50:10;101163.43;;;15.07;51.05
80397;BME280;69721;55.894;-3.052;2023-08-06T06:52:35;101168.55;;;14.17;53.52
80397;BME280;69721;55.894;-3.052;2023-08-06T06:55:01;101168.38;;;14.77;53.18
80397;BME280;69721;55.894;-3.052;2023-08-06T06:57:26;101167.05;;;14.77;52.51
80397;BME280;69721;55.894;-3.052;2023-08-06T06:59:51;101163.06;;;15.86;50.28
80397;BME280;69721;55.894;-3.052;2023-08-06T07:02:17;101165.78;;;14.28;52.66
80397;BME280;69721;55.894;-3.052;2023-08-06T07:04:42;101159.52;;;16.87;48.88
80397;BME280;69721;55.894;-3.052;2023-08-06T07:07:08;101155.59;;;18.16;46.38
80397;BME280;69721;55.894;-3.052;2023-08-06T07:09:33;101161.63;;;16.83;48.81
80397;BME280;69721;55.894;-3.052;2023-08-06T07:11:59;101169.72;;;14.99;52.04
80397;BME280;69721;55.894;-3.052;2023-08-06T07:14:25;101173.78;;;13.98;53.65
80397;BME280;69721;55.894;-3.052;2023-08-06T07:16:50;101174.40;;;15.44;51.42
80397;BME280;69721;55.894;-3.052;2023-08-06T07:19:15;101172.54;;;15.82;50.41
80397;BME280;69721;55.894;-3.052;2023-08-06T07:21:40;101170.77;;;16.78;49.16
80397;BME280;69721;55.894;-3.052;2023-08-06T07:24:06;101168.85;;;16.66;48.27
80397;BME280;69721;55.894;-3.052;2023-08-06T07:26:31;101171.41;;;17.31;47.99
80397;BME280;69721;55.894;-3.052;2023-08-06T07:28:56;101173.14;;;17.30;47.65
80397;BME280;69721;55.894;-3.052;2023-08-06T07:31:22;101174.16;;;17.37;46.65
80397;BME280;69721;55.894;-3.052;2023-08-06T07:33:47;101170.38;;;17.62;45.64
80397;BME280;69721;55.894;-3.052;2023-08-06T07:36:14;101169.58;;;18.17;45.41
80397;BME280;69721;55.894;-3.052;2023-08-06T07:38:38;101175.29;;;16.34;49.42
80397;BME280;69721;55.894;-3.052;2023-08-06T07:41:04;101174.94;;;16.42;48.74
80397;BME280;69721;55.894;-3.052;2023-08-06T07:43:29;101176.87;;;16.41;48.46
80397;BME280;69721;55.894;-3.052;2023-08-06T07:45:58;101176.09;;;16.43;48.89
80397;BME280;69721;55.894;-3.052;2023-08-06T07:48:20;101175.92;;;15.86;48.89
80397;BME280;69721;55.894;-3.052;2023-08-06T07:50:46;101179.53;;;15.37;50.56
80397;BME280;69721;55.894;-3.052;2023-08-06T07:53:11;101179.55;;;14.90;52.73
80397;BME280;69721;55.894;-3.052;2023-08-06T07:55:37;101176.48;;;15.47;51.31
80397;BME280;69721;55.894;-3.052;2023-08-06T07:58:02;101178.22;;;15.96;50.29
80397;BME280;69721;55.894;-3.052;2023-08-06T08:00:27;101180.23;;;17.32;47.21
80397;BME280;69721;55.894;-3.052;2023-08-06T08:02:53;101187.57;;;14.73;50.99
80397;BME280;69721;55.894;-3.052;2023-08-06T08:05:18;101189.84;;;14.98;52.35
80397;BME280;69721;55.894;-3.052;2023-08-06T08:07:44;101189.69;;;14.77;52.34
80397;BME280;69721;55.894;-3.052;2023-08-06T08:12:35;101184.81;;;16.38;49.72
80397;BME280;69721;55.894;-3.052;2023-08-06T08:15:01;101188.77;;;16.07;49.43
80397;BME280;69721;55.894;-3.052;2023-08-06T08:17:25;101187.36;;;15.65;49.65
80397;BME280;69721;55.894;-3.052;2023-08-06T08:19:50;101189.35;;;15.48;50.59
80397;BME280;69721;55.894;-3.052;2023-08-06T08:22:16;101196.49;;;14.23;52.92
80397;BME280;69721;55.894;-3.052;2023-08-06T08:24:42;101195.00;;;14.14;53.91
80397;BME280;69721;55.894;-3.052;2023-08-06T08:27:47;101190.20;;;15.59;50.62
80397;BME280;69721;55.894;-3.052;2023-08-06T08:30:12;101194.51;;;14.12;53.95
80397;BME280;69721;55.894;-3.052;2023-08-06T08:32:37;101192.52;;;14.73;52.17
80397;BME280;69721;55.894;-3.052;2023-08-06T08:35:03;101192.71;;;13.11;56.00
80397;BME280;69721;55.894;-3.052;2023-08-06T08:37:28;101182.04;;;15.98;49.05
80397;BME280;69721;55.894;-3.052;2023-08-06T08:39:54;101188.68;;;16.41;47.94
80397;BME280;69721;55.894;-3.052;2023-08-06T08:42:19;101192.39;;;15.19;50.97
80397;BME280;69721;55.894;-3.052;2023-08-06T08:44:44;101186.42;;;16.04;49.41
80397;BME280;69721;55.894;-3.052;2023-08-06T08:47:10;101189.97;;;16.94;46.59
80397;BME280;69721;55.894;-3.052;2023-08-06T08:49:35;101193.62;;;14.94;50.59
80397;BME280;69721;55.894;-3.052;2023-08-06T08:52:02;101193.94;;;15.76;48.46
80397;BME280;69721;55.894;-3.052;2023-08-06T08:54:26;101195.69;;;16.44;47.37
80397;BME280;69721;55.894;-3.052;2023-08-06T08:56:51;101196.07;;;18.24;44.35
80397;BME280;69721;55.894;-3.052;2023-08-06T08:59:16;101199.50;;;16.16;47.03
80397;BME280;69721;55.894;-3.052;2023-08-06T09:01:42;101195.78;;;17.31;44.05
80397;BME280;69721;55.894;-3.052;2023-08-06T09:04:08;101195.37;;;18.58;42.11
80397;BME280;69721;55.894;-3.052;2023-08-06T09:06:36;101200.25;;;17.13;44.65
80397;BME280;69721;55.894;-3.052;2023-08-06T09:09:06;101201.12;;;17.91;44.72
80397;BME280;69721;55.894;-3.052;2023-08-06T09:11:24;101200.53;;;17.55;43.67
80397;BME280;69721;55.894;-3.052;2023-08-06T09:13:49;101198.77;;;18.95;42.17
80397;BME280;69721;55.894;-3.052;2023-08-06T09:16:15;101204.69;;;14.84;48.22
80397;BME280;69721;55.894;-3.052;2023-08-06T09:18:40;101201.69;;;16.92;46.56
80397;BME280;69721;55.894;-3.052;2023-08-06T09:23:31;101196.22;;;18.66;43.11
80397;BME280;69721;55.894;-3.052;2023-08-06T09:25:57;101194.28;;;18.39;42.36
80397;BME280;69721;55.894;-3.052;2023-08-06T09:28:22;101192.25;;;18.31;42.11
80397;BME280;69721;55.894;-3.052;2023-08-06T09:30:47;101197.53;;;16.24;45.85
80397;BME280;69721;55.894;-3.052;2023-08-06T09:33:17;101195.55;;;17.20;44.41
80397;BME280;69721;55.894;-3.052;2023-08-06T09:35:37;101201.58;;;16.19;45.53
80397;BME280;69721;55.894;-3.052;2023-08-06T09:38:07;101201.19;;;16.01;45.71
80397;BME280;69721;55.894;-3.052;2023-08-06T09:40:30;101198.07;;;19.52;40.01
80397;BME280;69721;55.894;-3.052;2023-08-06T09:42:54;101193.81;;;19.90;40.16
80397;BME280;69721;55.894;-3.052;2023-08-06T09:45:19;101195.18;;;20.03;39.66
80397;BME280;69721;55.894;-3.052;2023-08-06T09:47:44;101203.46;;;18.43;41.69
80397;BME280;69721;55.894;-3.052;2023-08-06T09:50:15;101202.77;;;19.89;40.35
80397;BME280;69721;55.894;-3.052;2023-08-06T09:52:35;101209.17;;;17.07;41.26
80397;BME280;69721;55.894;-3.052;2023-08-06T09:55:01;101208.37;;;17.74;40.18
80397;BME280;69721;55.894;-3.052;2023-08-06T09:57:26;101201.28;;;19.52;39.20
80397;BME280;69721;55.894;-3.052;2023-08-06T09:59:52;101201.67;;;19.71;36.57
80397;BME280;69721;55.894;-3.052;2023-08-06T10:02:19;101207.88;;;19.37;36.27
80397;BME280;69721;55.894;-3.052;2023-08-06T10:04:45;101210.97;;;17.34;39.80
80397;BME280;69721;55.894;-3.052;2023-08-06T10:07:09;101214.63;;;17.76;38.72
80397;BME280;69721;55.894;-3.052;2023-08-06T10:09:34;101214.56;;;19.27;35.17
80397;BME280;69721;55.894;-3.052;2023-08-06T10:12:00;101207.46;;;19.31;36.09
80397;BME280;69721;55.894;-3.052;2023-08-06T10:14:27;101207.87;;;19.22;36.23
80397;BME280;69721;55.894;-3.052;2023-08-06T10:16:51;101210.98;;;18.27;37.70
80397;BME280;69721;55.894;-3.052;2023-08-06T10:19:17;101209.62;;;18.90;39.11
80397;BME280;69721;55.894;-3.052;2023-08-06T10:21:41;101211.12;;;18.65;36.33
80397;BME280;69721;55.894;-3.052;2023-08-06T10:24:07;101205.24;;;19.79;36.73
80397;BME280;69721;55.894;-3.052;2023-08-06T10:26:32;101201.20;;;20.24;35.01
80397;BME280;69721;55.894;-3.052;2023-08-06T10:28:58;101209.71;;;18.15;36.90
80397;BME280;69721;55.894;-3.052;2023-08-06T10:33:49;101211.48;;;17.88;36.67
80397;BME280;69721;55.894;-3.052;2023-08-06T10:36:15;101208.73;;;19.55;36.85
80397;BME280;69721;55.894;-3.052;2023-08-06T10:38:45;101204.93;;;19.67;32.99
80397;BME280;69721;55.894;-3.052;2023-08-06T10:41:05;101204.22;;;20.41;34.84
80397;BME280;69721;55.894;-3.052;2023-08-06T10:43:32;101206.19;;;18.25;35.40
80397;BME280;69721;55.894;-3.052;2023-08-06T10:45:56;101210.17;;;18.86;35.57
80397;BME280;69721;55.894;-3.052;2023-08-06T10:48:29;101212.25;;;18.93;35.31
80397;BME280;69721;55.894;-3.052;2023-08-06T10:50:46;101201.39;;;20.23;32.59
80397;BME280;69721;55.894;-3.052;2023-08-06T10:53:13;101204.30;;;19.39;32.68
80397;BME280;69721;55.894;-3.052;2023-08-06T10:55:38;101199.54;;;19.98;34.28
80397;BME280;69721;55.894;-3.052;2023-08-06T10:58:03;101203.86;;;18.40;33.89
80397;BME280;69721;55.894;-3.052;2023-08-06T11:00:29;101206.09;;;18.48;35.15
80397;BME280;69721;55.894;-3.052;2023-08-06T11:02:54;101201.61;;;20.63;34.34
80397;BME280;69721;55.894;-3.052;2023-08-06T11:05:19;101198.15;;;21.49;32.36
80397;BME280;69721;55.894;-3.052;2023-08-06T11:07:45;101198.53;;;21.87;29.33
80397;BME280;69721;55.894;-3.052;2023-08-06T11:10:12;101197.49;;;20.10;33.41
80397;BME280;69721;55.894;-3.052;2023-08-06T11:12:36;101204.66;;;18.75;33.65
80397;BME280;69721;55.894;-3.052;2023-08-06T11:15:02;101201.04;;;19.05;33.38
80397;BME280;69721;55.894;-3.052;2023-08-06T11:17:28;101193.03;;;20.85;30.89
80397;BME280;69721;55.894;-3.052;2023-08-06T11:19:52;101194.63;;;20.64;31.21
80397;BME280;69721;55.894;-3.052;2023-08-06T11:22:17;101204.79;;;18.89;32.50
80397;BME280;69721;55.894;-3.052;2023-08-06T11:24:42;101199.37;;;19.06;33.10
80397;BME280;69721;55.894;-3.052;2023-08-06T11:27:12;101196.64;;;19.80;32.31
80397;BME280;69721;55.894;-3.052;2023-08-06T11:29:37;101204.75;;;17.94;33.93
80397;BME280;69721;55.894;-3.052;2023-08-06T11:32:03;101199.69;;;20.26;31.24
80397;BME280;69721;55.894;-3.052;2023-08-06T11:34:24;101197.59;;;20.19;32.99
80397;BME280;69721;55.894;-3.052;2023-08-06T11:36:49;101203.01;;;22.11;30.02
80397;BME280;69721;55.894;-3.052;2023-08-06T11:39:14;101200.57;;;22.27;31.68
80397;BME280;69721;55.894;-3.052;2023-08-06T11:44:05;101202.81;;;21.10;30.48
80397;BME280;69721;55.894;-3.052;2023-08-06T11:48:56;101199.05;;;20.47;30.81
80397;BME280;69721;55.894;-3.052;2023-08-06T11:51:23;101198.71;;;20.26;31.80
80397;BME280;69721;55.894;-3.052;2023-08-06T11:53:48;101205.37;;;18.96;32.36
80397;BME280;69721;55.894;-3.052;2023-08-06T11:56:11;101198.37;;;19.69;31.56
80397;BME280;69721;55.894;-3.052;2023-08-06T11:58:36;101197.96;;;21.73;31.81
80397;BME280;69721;55.894;-3.052;2023-08-06T12:01:02;101198.03;;;21.11;31.39
80397;BME280;69721;55.894;-3.052;2023-08-06T12:03:27;101194.90;;;21.36;30.28
80397;BME280;69721;55.894;-3.052;2023-08-06T12:05:54;101195.94;;;20.81;29.31
80397;BME280;69721;55.894;-3.052;2023-08-06T12:08:19;101197.53;;;21.41;30.07
80397;BME280;69721;55.894;-3.052;2023-08-06T12:10:44;101200.08;;;20.29;29.64
80397;BME280;69721;55.894;-3.052;2023-08-06T12:13:10;101202.12;;;19.57;32.78
80397;BME280;69721;55.894;-3.052;2023-08-06T12:15:35;101205.18;;;19.12;31.89
80397;BME280;69721;55.894;-3.052;2023-08-06T12:18:00;101207.78;;;17.62;34.44
80397;BME280;69721;55.894;-3.052;2023-08-06T12:20:25;101196.87;;;19.82;32.11
80397;BME280;69721;55.894;-3.052;2023-08-06T12:22:52;101204.46;;;19.20;32.23
80397;BME280;69721;55.894;-3.052;2023-08-06T12:25:16;101196.73;;;21.93;31.57
80397;BME280;69721;55.894;-3.052;2023-08-06T12:27:43;101196.16;;;22.91;28.87
80397;BME280;69721;55.894;-3.052;2023-08-06T12:30:07;101198.42;;;21.90;30.55
80397;BME280;69721;55.894;-3.052;2023-08-06T12:32:33;101201.32;;;21.45;29.71
80397;BME280;69721;55.894;-3.052;2023-08-06T12:34:57;101202.13;;;21.74;32.09
80397;BME280;69721;55.894;-3.052;2023-08-06T12:37:24;101202.54;;;22.53;29.17
80397;BME280;69721;55.894;-3.052;2023-08-06T12:39:48;101201.14;;;21.63;30.30
80397;BME280;69721;55.894;-3.052;2023-08-06T12:42:14;101206.83;;;18.90;33.00
80397;BME280;69721;55.894;-3.052;2023-08-06T12:44:39;101198.47;;;20.36;32.48
80397;BME280;69721;55.894;-3.052;2023-08-06T12:47:04;101196.44;;;20.65;29.48
80397;BME280;69721;55.894;-3.052;2023-08-06T12:49:30;101190.07;;;21.41;28.82
80397;BME280;69721;55.894;-3.052;2023-08-06T12:54:20;101191.90;;;23.38;28.74
80397;BME280;69721;55.894;-3.052;2023-08-06T12:56:46;101190.31;;;21.50;29.01
80397;BME280;69721;55.894;-3.052;2023-08-06T12:59:11;101189.25;;;20.07;30.95